createdAt,value
2018-10-11T00:00:02.733Z,37.80
2018-10-11T00:02:31.922Z,41.80
2018-10-11T00:05:01.188Z,41.50
2018-10-11T00:07:30.366Z,41.87
2018-10-11T00:09:59.539Z,40.10
2018-10-11T00:15:28.987Z,44.23
2018-10-11T00:17:58.162Z,43.67
2018-10-11T00:20:27.337Z,39.70
2018-10-11T00:23:02.694Z,46.37
2018-10-11T00:25:31.895Z,37.30
2018-10-11T00:28:01.086Z,51.43
2018-10-11T00:30:30.277Z,38.93
2018-10-11T00:32:59.445Z,30.77
2018-10-11T00:35:28.678Z,41.93
2018-10-11T00:37:57.829Z,37.53
2018-10-11T00:43:26.995Z,39.93
2018-10-11T00:45:56.132Z,29.43
2018-10-11T00:48:25.314Z,35.43
2018-10-11T00:50:54.526Z,43.53
2018-10-11T00:53:23.683Z,35.80
2018-10-11T00:55:52.844Z,36.73
2018-10-11T00:58:22.505Z,31.40
2018-10-11T01:00:51.698Z,38.80
2018-10-11T01:03:20.841Z,36.43
2018-10-11T01:05:50.017Z,38.57
2018-10-11T01:11:03.791Z,39.03
2018-10-11T01:13:32.953Z,40.50
2018-10-11T01:16:02.118Z,29.37
2018-10-11T01:18:31.771Z,39.47
2018-10-11T01:21:00.946Z,30.37
2018-10-11T01:23:30.096Z,33.80
2018-10-11T01:25:59.283Z,36.90
2018-10-11T01:28:28.446Z,39.53
2018-10-11T01:31:02.926Z,35.80
2018-10-11T01:33:32.095Z,34.50
2018-10-11T01:36:01.258Z,30.13
2018-10-11T01:38:32.533Z,36.53
2018-10-11T01:41:01.898Z,36.57
2018-10-11T01:43:31.328Z,26.17
2018-10-11T01:46:00.647Z,30.67
2018-10-11T01:48:29.992Z,28.63
2018-10-11T01:50:59.807Z,28.77
2018-10-11T01:53:29.208Z,36.10
2018-10-11T01:55:58.610Z,39.20
2018-10-11T01:58:30.059Z,41.00
2018-10-11T02:00:59.468Z,33.80
2018-10-11T02:03:28.973Z,26.67
2018-10-11T02:06:01.952Z,35.60
2018-10-11T02:08:32.997Z,41.17
2018-10-11T02:11:02.395Z,30.73
2018-10-11T02:13:31.797Z,38.57
2018-10-11T02:16:01.199Z,37.57
2018-10-11T02:18:30.702Z,44.77
2018-10-11T02:21:00.107Z,36.70
2018-10-11T02:23:29.505Z,45.97
2018-10-11T02:25:58.909Z,40.67
2018-10-11T02:28:28.312Z,43.13
2018-10-11T02:30:57.753Z,43.90
2018-10-11T02:33:27.216Z,34.60
2018-10-11T02:35:57.027Z,46.17
2018-10-11T02:38:26.633Z,47.40
2018-10-11T02:40:56.036Z,43.67
2018-10-11T02:43:25.437Z,46.47
2018-10-11T02:45:54.613Z,38.80
2018-10-11T02:48:23.780Z,42.53
2018-10-11T02:50:53.018Z,30.90
2018-10-11T02:53:22.182Z,37.10
2018-10-11T02:55:51.357Z,36.30
2018-10-11T02:58:37.702Z,32.03
2018-10-11T03:01:07.282Z,36.00
2018-10-11T03:03:36.517Z,42.00
2018-10-11T03:06:05.701Z,41.80
2018-10-11T03:08:34.854Z,42.67
2018-10-11T03:11:04.186Z,44.77
2018-10-11T03:13:33.369Z,45.50
2018-10-11T03:16:02.579Z,44.87
2018-10-11T03:18:31.738Z,53.50
2018-10-11T03:21:00.942Z,49.10
2018-10-11T03:23:30.110Z,62.93
2018-10-11T03:25:59.308Z,48.07
2018-10-11T03:28:28.481Z,50.00
2018-10-11T03:30:57.713Z,45.70
2018-10-11T03:33:26.904Z,46.03
2018-10-11T03:35:56.063Z,41.80
2018-10-11T03:38:25.305Z,46.77
2018-10-11T03:40:54.529Z,35.57
2018-10-11T03:46:24.708Z,48.50
2018-10-11T03:48:54.008Z,56.53
2018-10-11T03:51:23.254Z,45.70
2018-10-11T03:53:52.425Z,33.50
2018-10-11T03:56:21.609Z,42.17
2018-10-11T03:58:50.848Z,47.80
2018-10-11T04:01:20.146Z,52.97
2018-10-11T04:03:49.351Z,48.10
2018-10-11T04:06:18.600Z,54.90
2018-10-11T04:08:47.787Z,42.70
2018-10-11T04:14:22.965Z,60.00
2018-10-11T04:16:52.126Z,59.13
2018-10-11T04:19:21.323Z,53.13
2018-10-11T04:21:50.486Z,57.10
2018-10-11T04:24:19.714Z,60.47
2018-10-11T04:26:48.901Z,66.17
2018-10-11T04:29:18.100Z,56.60
2018-10-11T04:31:47.328Z,37.90
2018-10-11T04:34:16.541Z,59.37
2018-10-11T04:36:45.773Z,45.50
2018-10-11T04:39:14.956Z,51.50
2018-10-11T04:41:44.158Z,41.50
2018-10-11T04:44:13.414Z,52.93
2018-10-11T04:46:42.799Z,59.47
2018-10-11T04:49:12.096Z,40.47
2018-10-11T04:51:42.147Z,39.27
2018-10-11T04:54:11.321Z,55.70
2018-10-11T04:56:40.528Z,55.43
2018-10-11T04:59:09.723Z,45.27
2018-10-11T05:01:38.952Z,48.13
2018-10-11T05:04:08.417Z,48.00
2018-10-11T05:06:37.656Z,51.43
2018-10-11T05:09:07.912Z,54.07
2018-10-11T05:11:38.445Z,48.00
2018-10-11T05:14:08.500Z,50.90
2018-10-11T05:16:37.702Z,49.80
2018-10-11T05:19:07.677Z,57.73
2018-10-11T05:21:59.322Z,57.20
2018-10-11T05:24:59.964Z,60.60
2018-10-11T05:27:29.166Z,57.90
2018-10-11T05:29:58.364Z,60.27
2018-10-11T05:32:27.802Z,42.57
2018-10-11T05:34:57.008Z,55.43
2018-10-11T05:37:26.221Z,58.90
2018-10-11T05:39:55.557Z,53.53
2018-10-11T05:42:24.721Z,59.13
2018-10-11T05:45:04.533Z,59.10
2018-10-11T05:47:33.895Z,45.50
2018-10-11T05:50:03.388Z,47.40
2018-10-11T05:52:32.536Z,57.53
2018-10-11T05:55:01.970Z,52.97
2018-10-11T05:57:31.201Z,46.40
2018-10-11T06:00:01.948Z,38.53
2018-10-11T06:02:31.218Z,63.60
2018-10-11T06:05:01.917Z,58.80
2018-10-11T06:07:31.121Z,59.50
2018-10-11T06:10:00.266Z,46.60
2018-10-11T06:12:29.458Z,57.40
2018-10-11T06:15:01.842Z,42.97
2018-10-11T06:17:31.693Z,45.93
2018-10-11T06:20:01.571Z,40.10
2018-10-11T06:22:30.735Z,57.83
2018-10-11T06:25:03.270Z,54.57
2018-10-11T06:31:00.510Z,40.77
2018-10-11T06:33:29.701Z,43.60
2018-10-11T06:36:02.884Z,60.17
2018-10-11T06:38:32.461Z,62.37
2018-10-11T06:41:01.718Z,44.27
2018-10-11T06:43:59.821Z,57.10
2018-10-11T06:46:58.710Z,58.47
2018-10-11T07:16:59.634Z,51.77
2018-10-11T07:22:58.936Z,54.57
2018-10-11T07:31:58.937Z,62.57
2018-10-11T07:37:58.454Z,60.57
2018-10-11T07:46:58.767Z,42.43
2018-10-11T07:52:28.684Z,59.50
2018-10-11T07:55:01.162Z,47.67
2018-10-11T08:00:58.607Z,64.70
2018-10-11T08:09:58.969Z,53.80
2018-10-11T08:24:59.383Z,59.57
2018-10-11T08:30:58.869Z,47.10
2018-10-11T08:39:59.067Z,54.80
2018-10-11T08:51:59.063Z,53.20
2018-10-11T08:57:58.799Z,45.10
2018-10-11T09:06:59.386Z,48.27
2018-10-11T09:12:58.815Z,49.43
2018-10-11T09:24:58.572Z,45.80
2018-10-11T09:39:59.361Z,42.80
2018-10-11T09:45:58.714Z,40.37
2018-10-11T09:54:58.891Z,38.33
2018-10-11T10:03:58.965Z,41.70
2018-10-11T10:12:59.481Z,38.47
2018-10-11T10:18:59.081Z,41.50
2018-10-11T10:27:58.673Z,36.30
2018-10-11T10:36:58.955Z,34.70
2018-10-11T10:45:54.221Z,33.60
2018-10-11T11:15:58.874Z,32.30
2018-10-11T11:28:04.489Z,29.80
2018-10-11T11:30:59.045Z,25.73
2018-10-11T11:48:58.711Z,25.03
2018-10-11T12:00:59.317Z,22.80
2018-10-11T12:09:59.487Z,24.63
2018-10-11T12:15:59.075Z,23.80
2018-10-11T12:27:59.133Z,22.63
2018-10-11T12:39:29.497Z,21.23
2018-10-11T12:42:02.303Z,19.10
2018-10-11T12:44:31.862Z,18.30
2018-10-11T12:52:10.424Z,20.73
2018-10-11T12:55:00.142Z,17.83
2018-10-11T12:57:59.187Z,15.27
2018-10-11T13:00:28.467Z,20.00
2018-10-11T13:03:04.382Z,18.27
2018-10-11T13:05:59.821Z,14.73
2018-10-11T13:14:59.703Z,15.47
2018-10-11T13:41:59.882Z,18.20
2018-10-11T13:50:58.940Z,16.50
2018-10-11T14:05:59.513Z,21.37
2018-10-11T14:14:59.038Z,14.63
2018-10-11T14:26:59.626Z,17.40
2018-10-11T14:32:58.962Z,18.10
2018-10-11T14:47:59.083Z,12.30
2018-10-11T14:59:58.802Z,12.97
2018-10-11T15:14:44.188Z,13.20
2018-10-11T15:17:14.678Z,14.53
2018-10-11T15:20:02.700Z,18.27
2018-10-11T15:22:58.836Z,14.53
2018-10-11T15:38:00.174Z,13.90
2018-10-11T15:40:59.120Z,16.83
2018-10-11T15:52:28.508Z,12.87
2018-10-11T15:55:03.623Z,11.73
2018-10-11T15:57:59.442Z,12.37
2018-10-11T16:06:29.399Z,13.57
2018-10-11T16:09:02.055Z,12.23
2018-10-11T16:11:31.201Z,12.33
2018-10-11T16:17:01.407Z,12.53
2018-10-11T16:19:59.942Z,15.33
2018-10-11T16:25:59.268Z,16.30
2018-10-11T16:28:28.485Z,17.60
2018-10-11T16:31:03.712Z,16.07
2018-10-11T16:33:59.681Z,13.27
2018-10-11T16:42:58.986Z,18.70
2018-10-11T16:51:59.594Z,14.20
2018-10-11T17:03:58.929Z,17.33
2018-10-11T17:15:59.098Z,17.20
2018-10-11T17:24:59.361Z,19.17
2018-10-11T17:39:59.398Z,19.17
2018-10-11T17:51:59.643Z,18.77
2018-10-11T18:00:59.761Z,14.67
2018-10-11T18:13:05.000Z,14.97
2018-10-11T18:42:59.373Z,13.87
2018-10-11T18:48:36.589Z,18.80
2018-10-11T18:51:06.005Z,16.90
2018-10-11T18:54:00.491Z,16.20
2018-10-11T18:56:51.234Z,15.70
2018-10-11T18:59:20.459Z,19.70
2018-10-11T19:08:21.556Z,16.87
2018-10-11T19:11:03.508Z,20.70
2018-10-11T19:13:35.827Z,22.83
2018-10-11T19:16:07.177Z,14.80
2018-10-11T19:18:37.241Z,17.03
2018-10-11T19:21:06.456Z,17.83
2018-10-11T19:23:35.740Z,19.47
2018-10-11T19:26:04.992Z,18.03
2018-10-11T19:28:59.149Z,18.00
2018-10-11T19:34:28.450Z,20.33
2018-10-11T19:37:03.349Z,23.53
2018-10-11T19:42:59.686Z,17.93
2018-10-11T19:54:59.860Z,20.30
2018-10-11T20:03:30.022Z,21.20
2018-10-11T20:09:02.500Z,23.50
2018-10-11T20:18:03.901Z,21.50
2018-10-11T20:20:59.317Z,20.33
2018-10-11T20:26:29.687Z,26.13
2018-10-11T20:29:02.201Z,21.53
2018-10-11T20:35:26.038Z,23.27
2018-10-11T20:38:01.862Z,17.50
2018-10-11T20:40:59.629Z,22.67
2018-10-11T20:52:29.305Z,18.83
2018-10-11T20:55:02.071Z,25.37
2018-10-11T21:01:01.233Z,22.17
2018-10-11T21:03:59.321Z,28.40
2018-10-11T21:16:01.930Z,21.97
2018-10-11T21:18:59.986Z,25.67
2018-10-11T21:21:29.413Z,22.27
2018-10-11T21:23:58.613Z,24.00
2018-10-11T21:26:27.905Z,25.90
2018-10-11T21:28:57.061Z,26.43
2018-10-11T21:31:26.298Z,25.83
2018-10-11T21:33:55.470Z,29.10
2018-10-11T21:36:24.625Z,19.60
2018-10-11T21:38:53.829Z,30.30
2018-10-11T21:41:22.991Z,31.07
2018-10-11T21:43:52.128Z,37.70
2018-10-11T21:46:21.360Z,28.83
2018-10-11T21:48:50.492Z,26.10
2018-10-11T21:51:19.694Z,29.03
2018-10-11T21:53:48.901Z,23.40
2018-10-11T21:56:18.069Z,27.47
2018-10-11T21:58:47.227Z,29.33
2018-10-11T22:01:20.935Z,28.43
2018-10-11T22:03:50.169Z,25.43
2018-10-11T22:06:19.483Z,28.93
2018-10-11T22:08:48.766Z,31.60
2018-10-11T22:11:18.075Z,27.80
2018-10-11T22:13:47.261Z,28.77
2018-10-11T22:16:16.932Z,27.60
2018-10-11T22:18:46.119Z,29.60
2018-10-11T22:21:15.280Z,27.87
2018-10-11T22:23:44.460Z,33.40
2018-10-11T22:26:13.632Z,31.93
2018-10-11T22:28:42.829Z,37.60
2018-10-11T22:31:13.216Z,34.93
2018-10-11T22:33:43.091Z,37.07
2018-10-11T22:36:13.072Z,25.97
2018-10-11T22:38:42.560Z,32.90
2018-10-11T22:41:12.528Z,38.10
2018-10-11T22:43:42.238Z,37.90
2018-10-11T22:46:12.182Z,37.13
2018-10-11T22:48:41.762Z,43.43
2018-10-11T22:51:11.381Z,33.47
2018-10-11T22:53:40.598Z,26.97
2018-10-11T22:56:09.786Z,43.13
2018-10-11T22:58:38.978Z,38.47
2018-10-11T23:01:08.168Z,40.60
2018-10-11T23:03:37.317Z,46.83
2018-10-11T23:09:08.162Z,39.60
2018-10-11T23:11:37.372Z,42.20
2018-10-11T23:14:06.893Z,44.70
2018-10-11T23:16:36.382Z,46.17
2018-10-11T23:19:05.693Z,38.50
2018-10-11T23:21:34.850Z,42.20
2018-10-11T23:24:04.050Z,46.50
2018-10-11T23:26:33.222Z,46.13
2018-10-11T23:29:02.395Z,40.67
2018-10-11T23:31:31.569Z,40.47
2018-10-11T23:34:03.903Z,38.53
2018-10-11T23:36:33.110Z,32.47
2018-10-11T23:39:02.265Z,36.00
2018-10-11T23:41:31.419Z,43.13
2018-10-11T23:44:00.623Z,32.57
2018-10-11T23:46:29.789Z,37.47
2018-10-11T23:48:58.981Z,36.87
2018-10-11T23:51:28.198Z,35.07
2018-10-11T23:53:57.470Z,31.93
2018-10-11T23:56:26.672Z,40.77
2018-10-11T23:58:55.861Z,39.63
